METAR TAF NOOA PER LA SARDEGNA

Available data for LIEA from the past hour
ALGHERO
Metar
LIEA 190450Z VRB02KT CAVOK 13/12 Q1015

04:50 UTC

Wind: ° 2kt

Visibility:

Sky:

Temp: 13 deg C / 55.4 deg F

Dewpoint: 12 deg C / 53.6 deg F

Pressure: 1015 hPa

TAF
TAF LIEA 182300Z 1900/1924 VRB05KT 9999 FEW030 BECMG 1910/1912 20010KT BECMG 1918/1920 06006KT
Available data for LIEE from the past hour
CAGLIARI/ELMAS(A
Metar
LIEE 190450Z 34004KT CAVOK 13/12 Q1016

04:50 UTC

Wind: 340° 4kt

Visibility:

Sky:

Temp: 13 deg C / 55.4 deg F

Dewpoint: 12 deg C / 53.6 deg F

Pressure: 1016 hPa

TAF
TAF LIEE 182300Z 1900/1924 VRB04KT 9999 FEW030 BECMG 1909/1911 16012KT
Available data for LIEO from the past hour
OLBIA/COSTA SMER
Metar
LIEO 190450Z VRB01KT CAVOK 14/12 Q1016

04:50 UTC

Wind: ° 1kt

Visibility:

Sky:

Temp: 14 deg C / 57.2 deg F

Dewpoint: 12 deg C / 53.6 deg F

Pressure: 1016 hPa

TAF
TAF LIEO 182300Z 1900/1924 23006KT 9999 FEW030 BECMG 1910/1912 10010KT
Available data for LIET from the past 2 hours
TORTOLI

PRINCIPALI AEROPORTI ITALIA

Available data for LIBD from the past hour
BARI/PALESE MACC
Metar
LIBD 190450Z 23006KT CAVOK 13/12 Q1017

04:50 UTC

Wind: 230° 6kt

Visibility:

Sky:

Temp: 13 deg C / 55.4 deg F

Dewpoint: 12 deg C / 53.6 deg F

Pressure: 1017 hPa

TAF
TAF LIBD 182300Z 1900/1924 VRB05KT 9999 FEW040 BECMG 1910/1912 08010KT
Available data for LICJ from the past hour
PALERMO/POINT RA
Metar
LICJ 190450Z 17002KT 9999 FEW020 SCT065 18/14 Q1017

04:50 UTC

Wind: 170° 2kt

Visibility: 9999 m

Sky: FEW 2000 ft

Temp: 18 deg C / 64.4 deg F

Dewpoint: 14 deg C / 57.2 deg F

Pressure: 1017 hPa

TAF
TAF LICJ 182300Z 1900/1924 19006KT 9999 FEW030 BECMG 1909/1911 04010KT BECMG 1918/1920 18008KT
ICAO LIRC not found
Available data for LIML from the past 2 hours
MILANO/LINATE
Available data for LIMC from the past hour
MILANO/MALPENSA
Metar
LIMC 190450Z 10004KT 4000 BR BKN005 OVC020 14/14 Q1015 NOSIG

04:50 UTC

Wind: 100° 4kt

Visibility: 4000 m

Sky: BKN 500 ft

Temp: 14 deg C / 57.2 deg F

Dewpoint: 14 deg C / 57.2 deg F

Pressure: 1015 hPa

TAF
TAF LIMC 182300Z 1900/2006 VRB05KT 8000 RA SCT020 BKN050 TEMPO 1900/1914 4000 SHRA
Available data for LIMF from the past hour
TORINO/CASELLE
Metar
LIMF 190450Z 03003KT 360V070 2200 -DZ BR BKN003 14/14 Q1015

04:50 UTC

Wind: 30° 3kt

Visibility: 2200 m

Sky: BKN 300 ft

Temp: 14 deg C / 57.2 deg F

Dewpoint: 14 deg C / 57.2 deg F

Pressure: 1015 hPa

TAF
TAF LIMF 182300Z 1900/1924 VRB05KT 6000 SCT020 BKN050 TEMPO 1900/1906 RA
Available data for LIMJ from the past hour
GENOVA/SESTRI
Metar
LIMJ 190450Z 13018KT 8000 -RA SCT015 BKN035 19/17 Q1014

04:50 UTC

Wind: 130° 18kt

Visibility: 8000 m

Sky: SCT 1500 ft

Temp: 19 deg C / 66.2 deg F

Dewpoint: 17 deg C / 62.6 deg F

Pressure: 1014 hPa

TAF
TAF LIMJ 182300Z 1900/1924 15015KT 9999 RA SCT015 BKN040 TEMPO 1900/1918 4000 SHRA
Available data for LIRF from the past hour
ROME/FIUMICINO
Metar
LIRF 190450Z 08004KT CAVOK 12/11 Q1017 NOSIG

04:50 UTC

Wind: 80° 4kt

Visibility:

Sky:

Temp: 12 deg C / 53.6 deg F

Dewpoint: 11 deg C / 51.8 deg F

Pressure: 1017 hPa

TAF
TAF LIRF 182300Z 1900/2006 06005KT CAVOK BECMG 1909/1911 22012KT BECMG 1916/1918 13008KT
Available data for LIPZ from the past hour
VENEZIA/TESSERA
Metar
LIPZ 190450Z 03005KT 7000 FEW018 14/13 Q1015 NOSIG

04:50 UTC

Wind: 30° 5kt

Visibility: 7000 m

Sky: FEW 1800 ft

Temp: 14 deg C / 57.2 deg F

Dewpoint: 13 deg C / 55.4 deg F

Pressure: 1015 hPa

TAF
TAF LIPZ 182300Z 1900/2006 VRB05KT 6000 SCT040 TEMPO 1900/1906 3000 BR BECMG 1908/1910 15010KT BECMG 1916/1918 VRB05KT BECMG 1920/1922 3000 BR